Terminal Aerodrome Forecast
Issued by NWS

Home | Current Version | Previous Version | Text Only | Print | Product List | Glossary On
Versions: 1 2 3 4 5 6 7 8 9 10 11 12 13
000
FTUS45 KCYS 161122
TAFAIA
TAF
KAIA 161122Z 1612/1712 VRB04KT P6SM BKN200
     FM161600 02013KT P6SM BKN150
     FM162200 03011KT P6SM OVC020
     FM170000 04011KT 5SM -FZDZ OVC015
     FM170400 03008KT 3SM -FZDZ OVC002=

USA.gov is the U.S. government's official web portal to all federal, state and local government web resources and services.